createdAt,value
2022-10-17T00:00:37.935Z,80.43
2022-10-17T00:03:04.984Z,80.67
2022-10-17T00:05:31.653Z,80.42
2022-10-17T00:07:58.513Z,80.42
2022-10-17T00:10:25.779Z,80.36
2022-10-17T00:12:52.916Z,80.36
2022-10-17T00:15:20.657Z,80.39
2022-10-17T00:17:47.896Z,80.68
2022-10-17T00:20:15.143Z,80.83
2022-10-17T00:22:42.231Z,80.22
2022-10-17T00:25:09.083Z,79.85
2022-10-17T00:27:37.056Z,79.90
2022-10-17T00:30:04.510Z,79.79
2022-10-17T00:32:31.367Z,80.13
2022-10-17T00:34:58.759Z,79.92
2022-10-17T00:37:25.802Z,79.92
2022-10-17T00:39:52.644Z,80.17
2022-10-17T00:42:19.690Z,80.30
2022-10-17T00:44:47.718Z,80.38
2022-10-17T00:47:17.778Z,80.49
2022-10-17T00:49:44.584Z,80.67
2022-10-17T00:52:23.505Z,80.51
2022-10-17T00:54:55.710Z,80.79
2022-10-17T00:57:22.481Z,80.58
2022-10-17T00:59:54.471Z,80.83
2022-10-17T01:02:22.260Z,80.64
2022-10-17T01:04:50.923Z,80.73
2022-10-17T01:07:17.657Z,80.45
2022-10-17T01:09:45.662Z,80.82
2022-10-17T01:12:16.672Z,80.77
2022-10-17T01:14:58.617Z,80.43
2022-10-17T01:17:36.301Z,80.60
2022-10-17T01:20:40.840Z,80.54
2022-10-17T01:23:19.651Z,80.50
2022-10-17T01:26:08.309Z,79.94
2022-10-17T01:28:56.090Z,79.96
2022-10-17T01:31:24.113Z,80.12
2022-10-17T01:34:08.364Z,80.12
2022-10-17T01:36:59.373Z,80.26
2022-10-17T01:39:48.007Z,80.43
2022-10-17T01:42:49.881Z,80.44
2022-10-17T01:45:25.800Z,80.49
2022-10-17T01:47:53.206Z,80.47
2022-10-17T01:50:28.959Z,80.52
2022-10-17T01:52:59.717Z,81.07
2022-10-17T01:55:36.499Z,80.85
2022-10-17T01:58:25.116Z,80.25
2022-10-17T02:00:52.321Z,80.23
2022-10-17T02:03:20.167Z,80.33
2022-10-17T02:05:47.376Z,80.49
2022-10-17T02:08:14.439Z,80.64
2022-10-17T02:11:16.661Z,80.97
2022-10-17T02:13:52.352Z,80.96
2022-10-17T02:16:36.162Z,81.10
2022-10-17T02:19:03.308Z,80.95
2022-10-17T02:21:54.071Z,80.59
2022-10-17T02:24:32.682Z,80.43
2022-10-17T02:27:12.782Z,80.32
2022-10-17T02:29:54.176Z,80.08
2022-10-17T02:32:35.445Z,80.37
2022-10-17T02:35:04.172Z,80.62
2022-10-17T02:37:31.720Z,80.52
2022-10-17T02:40:00.103Z,80.69
2022-10-17T02:42:27.876Z,80.87
2022-10-17T02:45:00.121Z,80.72
2022-10-17T02:47:36.899Z,81.13
2022-10-17T02:50:06.458Z,81.07
2022-10-17T02:52:48.593Z,80.94
2022-10-17T02:55:23.535Z,80.94
2022-10-17T02:57:56.967Z,80.84
2022-10-17T03:00:25.328Z,81.00
2022-10-17T03:02:53.699Z,80.89
2022-10-17T03:05:23.249Z,80.82
2022-10-17T03:07:50.013Z,80.78
2022-10-17T03:10:16.815Z,80.82
2022-10-17T03:12:43.779Z,80.41
2022-10-17T03:15:12.409Z,80.28
2022-10-17T03:17:39.315Z,80.41
2022-10-17T03:20:08.095Z,80.15
2022-10-17T03:22:34.907Z,79.95
2022-10-17T03:25:03.637Z,80.39
2022-10-17T03:27:30.662Z,80.58
2022-10-17T03:29:57.882Z,80.78
2022-10-17T03:32:24.767Z,80.83
2022-10-17T03:34:51.446Z,80.76
2022-10-17T03:37:18.135Z,80.84
2022-10-17T03:39:44.945Z,80.98
2022-10-17T03:42:11.736Z,80.63
2022-10-17T03:44:38.475Z,80.54
2022-10-17T03:47:06.486Z,80.74
2022-10-17T03:49:33.995Z,80.85
2022-10-17T03:52:00.692Z,80.84
2022-10-17T03:54:27.952Z,80.74
2022-10-17T03:56:54.737Z,80.77
2022-10-17T03:59:22.405Z,80.79
2022-10-17T04:01:58.590Z,80.58
2022-10-17T04:04:25.340Z,80.37
2022-10-17T04:06:52.012Z,80.48
2022-10-17T04:09:18.762Z,80.14
2022-10-17T04:12:00.352Z,80.27
2022-10-17T04:14:27.126Z,80.30
2022-10-17T04:16:54.389Z,80.44
2022-10-17T04:19:21.868Z,80.85
2022-10-17T04:21:49.422Z,80.81
2022-10-17T04:24:17.376Z,81.06
2022-10-17T04:26:53.605Z,81.31
2022-10-17T04:29:25.401Z,81.27
2022-10-17T04:31:56.184Z,81.45
2022-10-17T04:34:32.949Z,81.28
2022-10-17T04:36:59.714Z,81.03
2022-10-17T04:39:27.726Z,80.81
2022-10-17T04:41:56.582Z,80.84
2022-10-17T04:44:24.075Z,80.54
2022-10-17T04:46:52.252Z,80.93
2022-10-17T04:49:19.712Z,80.78
2022-10-17T04:51:48.954Z,81.16
2022-10-17T04:54:21.947Z,81.21
2022-10-17T04:56:54.310Z,80.82
2022-10-17T04:59:21.055Z,80.58
2022-10-17T05:01:53.292Z,80.52
2022-10-17T05:04:23.915Z,80.43
2022-10-17T05:06:53.205Z,80.38
2022-10-17T05:09:22.683Z,80.67
2022-10-17T05:11:49.359Z,80.80
2022-10-17T05:14:18.131Z,81.00
2022-10-17T05:16:44.945Z,80.91
2022-10-17T05:19:12.045Z,80.79
2022-10-17T05:21:44.517Z,80.69
2022-10-17T05:24:13.340Z,80.70
2022-10-17T05:26:40.028Z,80.62
2022-10-17T05:29:06.812Z,80.72
2022-10-17T05:31:37.820Z,80.47
2022-10-17T05:34:09.012Z,80.52
2022-10-17T05:36:38.336Z,80.52
2022-10-17T05:39:05.791Z,80.70
2022-10-17T05:41:34.700Z,80.61
2022-10-17T05:44:04.641Z,80.46
2022-10-17T05:46:42.240Z,80.72
2022-10-17T05:49:15.097Z,80.63
2022-10-17T05:51:52.527Z,80.51
2022-10-17T05:54:19.410Z,80.52
2022-10-17T05:56:46.102Z,80.48
2022-10-17T05:59:12.840Z,80.57
2022-10-17T06:01:49.234Z,80.58
2022-10-17T06:04:16.034Z,80.89
2022-10-17T06:06:43.416Z,80.94
2022-10-17T06:09:10.551Z,80.88
2022-10-17T06:11:40.054Z,80.95
2022-10-17T06:14:07.365Z,80.70
2022-10-17T06:16:34.607Z,80.54
2022-10-17T06:19:01.732Z,80.07
2022-10-17T06:21:29.551Z,80.08
2022-10-17T06:24:06.197Z,79.92
2022-10-17T06:26:35.743Z,79.90
2022-10-17T06:29:02.589Z,80.18
2022-10-17T06:31:34.677Z,79.91
2022-10-17T06:34:01.485Z,79.59
2022-10-17T06:36:28.975Z,79.68
2022-10-17T06:38:55.625Z,79.95
2022-10-17T06:41:41.464Z,80.12
2022-10-17T06:44:11.356Z,80.01
2022-10-17T06:46:59.152Z,80.11
2022-10-17T06:49:27.293Z,79.94
2022-10-17T06:52:17.296Z,80.11
2022-10-17T06:54:57.600Z,80.09
2022-10-17T06:57:32.615Z,80.15
2022-10-17T07:00:21.292Z,80.34
2022-10-17T07:02:51.529Z,79.70
2022-10-17T07:05:19.526Z,79.59
2022-10-17T07:07:48.532Z,78.94
2022-10-17T07:10:18.508Z,78.49
2022-10-17T07:12:45.959Z,78.12
2022-10-17T07:15:13.363Z,77.99
2022-10-17T07:17:40.055Z,77.88
2022-10-17T07:20:07.450Z,77.64
2022-10-17T07:22:36.044Z,77.96
2022-10-17T07:25:02.791Z,77.45
2022-10-17T07:27:34.330Z,77.82
2022-10-17T07:30:01.834Z,77.82
2022-10-17T07:32:37.375Z,77.67
2022-10-17T07:35:05.110Z,77.70
2022-10-17T07:37:32.203Z,77.80
2022-10-17T07:39:59.983Z,77.79
2022-10-17T07:42:27.942Z,77.35
2022-10-17T07:44:55.288Z,77.45
2022-10-17T07:47:23.054Z,77.18
2022-10-17T07:49:50.324Z,77.17
2022-10-17T07:52:17.316Z,76.75
2022-10-17T07:54:44.556Z,76.10
2022-10-17T07:57:11.268Z,76.13
2022-10-17T07:59:38.502Z,76.13
2022-10-17T08:02:05.385Z,76.10
2022-10-17T08:04:32.597Z,75.73
2022-10-17T08:07:17.955Z,75.49
2022-10-17T08:09:45.985Z,75.00
2022-10-17T08:12:14.935Z,75.04
2022-10-17T08:14:42.239Z,74.26
2022-10-17T08:17:09.419Z,74.19
2022-10-17T08:19:40.451Z,74.09
2022-10-17T08:22:07.386Z,74.34
2022-10-17T08:24:34.074Z,73.71
2022-10-17T08:27:00.901Z,73.23
2022-10-17T08:29:27.710Z,72.84
2022-10-17T08:31:58.662Z,72.88
2022-10-17T08:34:27.733Z,72.18
2022-10-17T08:36:54.856Z,72.10
2022-10-17T08:39:21.525Z,71.63
2022-10-17T08:41:56.920Z,71.66
2022-10-17T08:44:29.902Z,72.08
2022-10-17T08:46:59.953Z,72.29
2022-10-17T08:49:39.245Z,71.87
2022-10-17T08:52:30.809Z,72.64
2022-10-17T08:54:57.603Z,71.51
2022-10-17T08:57:24.605Z,70.88
2022-10-17T08:59:52.851Z,71.31
2022-10-17T09:02:33.516Z,71.08
2022-10-17T09:05:24.043Z,70.73
2022-10-17T09:08:02.451Z,70.50
2022-10-17T09:10:29.050Z,69.90
2022-10-17T09:13:17.212Z,69.77
2022-10-17T09:15:55.731Z,70.13
2022-10-17T09:18:29.639Z,70.32
2022-10-17T09:21:28.567Z,69.44
2022-10-17T09:24:09.067Z,69.64
2022-10-17T09:26:42.175Z,69.14
2022-10-17T09:29:25.293Z,69.05
2022-10-17T09:32:15.234Z,68.83
2022-10-17T09:34:41.920Z,68.79
2022-10-17T09:37:13.977Z,68.08
2022-10-17T09:39:41.885Z,68.23
2022-10-17T09:42:13.992Z,68.25
2022-10-17T09:45:11.826Z,68.15
2022-10-17T09:47:42.061Z,67.86
2022-10-17T09:50:30.503Z,68.22
2022-10-17T09:53:01.918Z,68.82
2022-10-17T09:55:38.189Z,69.09
2022-10-17T09:58:07.202Z,69.41
2022-10-17T10:00:36.050Z,68.65
2022-10-17T10:03:22.148Z,69.15
2022-10-17T10:06:05.382Z,69.06
2022-10-17T10:08:35.738Z,68.55
2022-10-17T10:11:07.872Z,68.49
2022-10-17T10:13:36.297Z,67.69
2022-10-17T10:16:17.221Z,68.11
2022-10-17T10:18:45.508Z,67.92
2022-10-17T10:21:15.334Z,68.09
2022-10-17T10:23:43.853Z,68.32
2022-10-17T10:26:22.619Z,68.86
2022-10-17T10:29:08.303Z,67.49
2022-10-17T10:31:38.087Z,67.05
2022-10-17T10:34:18.671Z,66.71
2022-10-17T10:37:17.188Z,67.30
2022-10-17T10:40:20.584Z,66.37
2022-10-17T10:42:50.494Z,65.20
2022-10-17T10:45:48.411Z,64.13
2022-10-17T10:48:26.854Z,65.25
2022-10-17T10:51:05.582Z,65.96
2022-10-17T10:53:42.047Z,66.71
2022-10-17T10:56:27.007Z,65.46
2022-10-17T10:59:08.978Z,64.92
2022-10-17T11:02:03.387Z,64.42
2022-10-17T11:04:45.247Z,64.09
2022-10-17T11:07:23.432Z,64.81
2022-10-17T11:10:09.085Z,63.79
2022-10-17T11:12:41.099Z,63.13
2022-10-17T11:15:30.180Z,64.59
2022-10-17T11:18:03.446Z,61.80
2022-10-17T11:20:37.072Z,61.10
2022-10-17T11:23:32.987Z,62.49
2022-10-17T11:26:04.228Z,61.07
2022-10-17T11:28:31.053Z,62.08
2022-10-17T11:31:08.100Z,63.20
2022-10-17T11:33:41.102Z,61.08
2022-10-17T11:36:09.937Z,61.60
2022-10-17T11:38:36.914Z,61.59
2022-10-17T11:41:05.081Z,60.94
2022-10-17T11:43:57.298Z,60.64
2022-10-17T11:46:25.715Z,60.01
2022-10-17T11:49:20.599Z,61.03
2022-10-17T11:52:01.304Z,60.91
2022-10-17T11:55:01.283Z,61.24
2022-10-17T11:57:37.479Z,62.52
2022-10-17T12:00:22.027Z,61.67
2022-10-17T12:03:12.126Z,62.41
2022-10-17T12:05:55.927Z,62.40
2022-10-17T12:08:39.457Z,63.17
2022-10-17T12:11:21.634Z,61.98
2022-10-17T12:13:55.155Z,62.02
2022-10-17T12:16:21.798Z,62.21
2022-10-17T12:18:50.751Z,62.98
2022-10-17T12:21:17.647Z,62.35
2022-10-17T12:23:52.630Z,62.43
2022-10-17T12:26:29.660Z,62.48
2022-10-17T12:28:57.259Z,63.37
2022-10-17T12:31:29.753Z,58.99
2022-10-17T12:34:01.135Z,60.30
2022-10-17T12:36:28.473Z,58.66
2022-10-17T12:39:01.322Z,57.12
2022-10-17T12:41:40.406Z,56.43
2022-10-17T12:44:13.630Z,54.77
2022-10-17T12:46:51.806Z,52.88
2022-10-17T12:49:41.452Z,53.83
2022-10-17T12:52:32.637Z,54.39
2022-10-17T12:55:12.068Z,53.10
2022-10-17T12:57:48.924Z,52.05
2022-10-17T13:00:33.855Z,53.24
2022-10-17T13:03:28.386Z,51.75
2022-10-17T13:05:58.294Z,52.78
2022-10-17T13:08:29.128Z,54.17
2022-10-17T13:10:56.480Z,53.91
2022-10-17T13:13:39.308Z,53.72
2022-10-17T13:16:06.105Z,53.58
2022-10-17T13:18:33.031Z,53.70
2022-10-17T13:20:59.727Z,53.44
2022-10-17T13:23:29.387Z,53.54
2022-10-17T13:26:16.514Z,53.01
2022-10-17T13:28:43.941Z,54.72
2022-10-17T13:31:39.481Z,53.81
2022-10-17T13:34:15.457Z,53.83
2022-10-17T13:36:47.941Z,53.38
2022-10-17T13:39:23.203Z,53.36
2022-10-17T13:41:59.408Z,54.06
2022-10-17T13:44:28.215Z,53.77
2022-10-17T13:46:55.054Z,55.53
2022-10-17T13:49:55.463Z,54.40
2022-10-17T13:52:25.796Z,53.45
2022-10-17T13:54:53.753Z,54.74
2022-10-17T13:57:24.137Z,52.87
2022-10-17T13:59:53.892Z,54.56
2022-10-17T14:02:24.280Z,57.33
2022-10-17T14:05:28.056Z,55.35
2022-10-17T14:08:20.229Z,56.97
2022-10-17T14:10:46.658Z,55.38
2022-10-17T14:13:21.745Z,55.73
2022-10-17T14:15:48.814Z,56.69
2022-10-17T14:18:21.069Z,57.96
2022-10-17T14:21:30.396Z,55.55
2022-10-17T14:23:38.907Z,57.26
2022-10-17T14:26:08.263Z,58.80
2022-10-17T14:28:35.419Z,58.87
2022-10-17T14:31:18.358Z,59.74
2022-10-17T14:33:50.522Z,58.53
2022-10-17T14:36:18.549Z,60.08
2022-10-17T14:44:29.743Z,59.86
2022-10-17T14:47:00.257Z,59.44
2022-10-17T14:49:39.143Z,59.27
2022-10-17T14:52:16.823Z,56.79
2022-10-17T14:54:46.852Z,58.25
2022-10-17T14:57:34.531Z,57.65
2022-10-17T15:00:03.073Z,58.67
2022-10-17T15:02:33.009Z,60.43
2022-10-17T15:05:09.446Z,58.17
2022-10-17T15:07:39.098Z,59.33
2022-10-17T15:10:06.613Z,58.84
2022-10-17T15:12:33.355Z,59.12
2022-10-17T15:15:02.287Z,58.39
2022-10-17T15:17:31.044Z,60.11
2022-10-17T15:19:57.981Z,61.74
2022-10-17T15:22:25.170Z,62.38
2022-10-17T15:24:52.951Z,63.33
2022-10-17T15:27:26.363Z,63.80
2022-10-17T15:29:53.253Z,64.59
2022-10-17T15:32:20.292Z,64.77
2022-10-17T15:34:47.110Z,65.40
2022-10-17T15:37:33.789Z,65.61
2022-10-17T15:40:05.847Z,65.52
2022-10-17T15:42:35.726Z,66.04
2022-10-17T15:45:02.584Z,66.31
2022-10-17T15:47:33.777Z,66.25
2022-10-17T15:50:01.472Z,66.36
2022-10-17T15:52:28.471Z,66.66
2022-10-17T15:54:57.289Z,67.05
2022-10-17T15:57:29.105Z,67.38
2022-10-17T15:59:58.278Z,67.63
2022-10-17T16:02:25.291Z,68.08
2022-10-17T16:04:52.298Z,68.26
2022-10-17T16:07:19.964Z,68.44
2022-10-17T16:09:46.640Z,68.43
2022-10-17T16:12:17.732Z,68.74
2022-10-17T16:14:44.887Z,69.19
2022-10-17T16:17:15.536Z,69.27
2022-10-17T16:19:42.838Z,69.73
2022-10-17T16:22:22.897Z,70.17
2022-10-17T16:24:49.567Z,70.58
2022-10-17T18:37:17.628Z,75.12
2022-10-17T18:39:45.056Z,75.38
2022-10-17T18:42:11.960Z,75.41
2022-10-17T18:44:38.677Z,75.74
2022-10-17T18:47:05.513Z,75.85
2022-10-17T18:49:32.248Z,75.91
2022-10-17T18:51:59.818Z,75.87
2022-10-17T18:54:26.506Z,75.72
2022-10-17T18:56:54.261Z,75.73
2022-10-17T18:59:21.395Z,75.80
2022-10-17T19:01:48.141Z,76.02
2022-10-17T19:04:15.156Z,75.99
2022-10-17T19:06:41.904Z,76.27
2022-10-17T19:09:10.765Z,76.18
2022-10-17T19:11:38.693Z,76.31
2022-10-17T19:14:13.315Z,76.51
2022-10-17T19:16:45.835Z,76.26
2022-10-17T19:19:17.751Z,76.39
2022-10-17T19:21:45.113Z,76.51
2022-10-17T19:24:15.108Z,76.47
2022-10-17T19:26:43.592Z,76.68
2022-10-17T19:29:13.938Z,76.80
2022-10-17T19:31:41.209Z,76.77
2022-10-17T19:34:07.947Z,76.88
2022-10-17T19:36:35.290Z,76.93
2022-10-17T19:39:04.269Z,77.08
2022-10-17T19:41:31.407Z,77.00
2022-10-17T19:43:58.279Z,77.24
2022-10-17T19:46:26.315Z,77.33
2022-10-17T19:48:53.105Z,77.42
2022-10-17T19:51:24.548Z,77.56
2022-10-17T19:53:52.464Z,77.61
2022-10-17T19:56:20.470Z,77.60
2022-10-17T19:58:48.206Z,77.70
2022-10-17T20:01:26.397Z,77.56
2022-10-17T20:03:53.507Z,77.77
2022-10-17T20:06:20.583Z,77.78
2022-10-17T20:08:47.351Z,78.06
2022-10-17T20:11:16.622Z,78.41
2022-10-17T20:13:44.846Z,78.27
2022-10-17T20:16:23.210Z,78.42
2022-10-17T20:18:51.497Z,78.48
2022-10-17T20:21:23.036Z,78.20
2022-10-17T20:23:50.623Z,78.16
2022-10-17T20:26:26.285Z,78.10
2022-10-17T20:29:01.877Z,78.13
2022-10-17T20:31:28.722Z,78.50
2022-10-17T20:33:59.763Z,78.30
2022-10-17T20:36:26.641Z,78.60
2022-10-17T20:38:57.494Z,78.49
2022-10-17T20:41:25.185Z,78.75
2022-10-17T20:43:52.780Z,78.86
2022-10-17T20:46:35.975Z,78.87
2022-10-17T20:49:05.820Z,78.61
2022-10-17T20:51:33.048Z,78.55
2022-10-17T20:53:59.764Z,78.57
2022-10-17T20:56:28.844Z,78.68
2022-10-17T20:59:00.653Z,78.92
2022-10-17T21:01:28.330Z,78.51
2022-10-17T21:03:55.003Z,78.50
2022-10-17T21:06:22.759Z,78.46
2022-10-17T21:08:50.000Z,78.81
2022-10-17T21:11:28.743Z,79.04
2022-10-17T21:14:06.439Z,78.58
2022-10-17T21:16:35.100Z,78.77
2022-10-17T21:19:02.416Z,78.87
2022-10-17T21:21:34.621Z,78.90
2022-10-17T21:24:04.900Z,79.20
2022-10-17T21:26:33.197Z,79.34
2022-10-17T21:29:05.476Z,79.44
2022-10-17T21:31:34.039Z,79.17
2022-10-17T21:34:05.893Z,79.27
2022-10-17T21:36:32.486Z,79.38
2022-10-17T21:38:59.220Z,79.39
2022-10-17T21:41:27.681Z,79.50
2022-10-17T21:43:56.114Z,79.55
2022-10-17T21:46:23.836Z,79.30
2022-10-17T21:48:51.921Z,79.29
2022-10-17T21:51:22.494Z,79.17
2022-10-17T21:53:50.273Z,79.42
2022-10-17T21:56:19.340Z,79.49
2022-10-17T21:58:46.086Z,79.63
2022-10-17T22:01:17.781Z,79.87
2022-10-17T22:03:47.176Z,79.99
2022-10-17T22:06:38.808Z,80.32
2022-10-17T22:09:04.004Z,80.58
2022-10-17T22:11:32.293Z,80.96
2022-10-17T22:14:04.489Z,81.12
2022-10-17T22:16:31.276Z,81.09
2022-10-17T22:19:03.151Z,80.89
2022-10-17T22:21:33.391Z,80.70
2022-10-17T22:24:02.784Z,80.77
2022-10-17T22:26:31.137Z,80.61
2022-10-17T22:28:58.241Z,80.64
2022-10-17T22:31:25.304Z,80.81
2022-10-17T22:33:52.385Z,80.93
2022-10-17T22:36:19.159Z,80.71
2022-10-17T22:38:45.755Z,80.82
2022-10-17T22:41:12.366Z,80.65
2022-10-17T22:43:39.107Z,80.10
2022-10-17T22:46:07.029Z,79.94
2022-10-17T22:48:34.423Z,79.66
2022-10-17T22:51:01.476Z,79.74
2022-10-17T22:53:29.760Z,79.73
2022-10-17T22:56:05.876Z,80.00
2022-10-17T22:58:34.054Z,80.32
2022-10-17T23:01:01.249Z,80.29
2022-10-17T23:03:29.109Z,80.28
2022-10-17T23:05:56.714Z,80.37
2022-10-17T23:08:24.331Z,80.59
2022-10-17T23:10:51.249Z,80.68
2022-10-17T23:13:19.098Z,81.02
2022-10-17T23:15:46.112Z,81.16
2022-10-17T23:18:12.899Z,81.41
2022-10-17T23:20:39.540Z,81.56
2022-10-17T23:23:06.656Z,81.53
2022-10-17T23:25:34.288Z,81.67
2022-10-17T23:28:01.189Z,81.71
2022-10-17T23:30:27.947Z,81.57
2022-10-17T23:32:55.241Z,81.37
2022-10-17T23:35:22.202Z,81.45
2022-10-17T23:37:48.850Z,81.60
2022-10-17T23:40:15.805Z,81.63
2022-10-17T23:42:42.452Z,81.40
2022-10-17T23:45:09.626Z,80.82
2022-10-17T23:47:36.225Z,80.62
2022-10-17T23:50:03.330Z,80.89
2022-10-17T23:52:29.934Z,80.62
2022-10-17T23:54:56.569Z,80.50
2022-10-17T23:57:23.240Z,80.26
2022-10-17T23:59:50.376Z,80.29
